sensor_id;sensor_type;location;lat;lon;timestamp;P1;durP1;ratioP1;P2;durP2;ratioP2
18411;SDS011;27097;51.738;19.472;2023-08-07T00:01:47;2.70;;;0.93;;
18411;SDS011;27097;51.738;19.472;2023-08-07T00:04:14;1.75;;;1.00;;
18411;SDS011;27097;51.738;19.472;2023-08-07T00:06:41;3.25;;;1.08;;
18411;SDS011;27097;51.738;19.472;2023-08-07T00:09:07;2.17;;;1.00;;
18411;SDS011;27097;51.738;19.472;2023-08-07T00:11:34;1.20;;;1.10;;
18411;SDS011;27097;51.738;19.472;2023-08-07T00:14:01;1.27;;;1.10;;
18411;SDS011;27097;51.738;19.472;2023-08-07T00:16:28;1.48;;;1.00;;
18411;SDS011;27097;51.738;19.472;2023-08-07T00:18:56;2.55;;;1.10;;
18411;SDS011;27097;51.738;19.472;2023-08-07T00:21:23;0.93;;;0.90;;
18411;SDS011;27097;51.738;19.472;2023-08-07T00:23:50;1.13;;;1.02;;
18411;SDS011;27097;51.738;19.472;2023-08-07T00:26:17;1.02;;;0.80;;
18411;SDS011;27097;51.738;19.472;2023-08-07T00:28:43;1.30;;;1.00;;
18411;SDS011;27097;51.738;19.472;2023-08-07T00:31:10;3.53;;;1.20;;
18411;SDS011;27097;51.738;19.472;2023-08-07T00:33:37;1.48;;;1.00;;
18411;SDS011;27097;51.738;19.472;2023-08-07T00:36:05;1.70;;;1.00;;
18411;SDS011;27097;51.738;19.472;2023-08-07T00:38:32;1.30;;;1.10;;
18411;SDS011;27097;51.738;19.472;2023-08-07T00:40:59;3.80;;;1.17;;
18411;SDS011;27097;51.738;19.472;2023-08-07T00:43:26;1.85;;;1.15;;
18411;SDS011;27097;51.738;19.472;2023-08-07T00:45:53;1.10;;;1.00;;
18411;SDS011;27097;51.738;19.472;2023-08-07T00:48:20;2.17;;;1.10;;
18411;SDS011;27097;51.738;19.472;2023-08-07T00:50:47;2.60;;;1.25;;
18411;SDS011;27097;51.738;19.472;2023-08-07T00:53:16;1.40;;;1.20;;
18411;SDS011;27097;51.738;19.472;2023-08-07T00:55:43;0.80;;;0.80;;
18411;SDS011;27097;51.738;19.472;2023-08-07T00:58:11;1.13;;;1.00;;
18411;SDS011;27097;51.738;19.472;2023-08-07T01:00:38;0.88;;;0.88;;
18411;SDS011;27097;51.738;19.472;2023-08-07T01:03:07;2.72;;;1.15;;
18411;SDS011;27097;51.738;19.472;2023-08-07T01:05:34;1.42;;;0.98;;
18411;SDS011;27097;51.738;19.472;2023-08-07T01:08:01;1.42;;;1.08;;
18411;SDS011;27097;51.738;19.472;2023-08-07T01:10:32;1.35;;;1.17;;
18411;SDS011;27097;51.738;19.472;2023-08-07T01:13:08;1.27;;;1.17;;
18411;SDS011;27097;51.738;19.472;2023-08-07T01:15:42;2.15;;;1.20;;
18411;SDS011;27097;51.738;19.472;2023-08-07T01:18:10;1.00;;;1.00;;
18411;SDS011;27097;51.738;19.472;2023-08-07T01:20:37;2.80;;;1.02;;
18411;SDS011;27097;51.738;19.472;2023-08-07T01:23:06;2.28;;;1.08;;
18411;SDS011;27097;51.738;19.472;2023-08-07T01:25:32;3.03;;;1.10;;
18411;SDS011;27097;51.738;19.472;2023-08-07T01:28:06;1.40;;;1.15;;
18411;SDS011;27097;51.738;19.472;2023-08-07T01:30:40;1.55;;;1.10;;
18411;SDS011;27097;51.738;19.472;2023-08-07T01:33:10;1.33;;;1.10;;
18411;SDS011;27097;51.738;19.472;2023-08-07T01:35:43;1.20;;;1.10;;
18411;SDS011;27097;51.738;19.472;2023-08-07T01:38:13;1.50;;;1.08;;
18411;SDS011;27097;51.738;19.472;2023-08-07T01:40:41;1.92;;;1.00;;
18411;SDS011;27097;51.738;19.472;2023-08-07T01:43:09;3.10;;;1.00;;
18411;SDS011;27097;51.738;19.472;2023-08-07T01:45:35;1.42;;;1.13;;
18411;SDS011;27097;51.738;19.472;2023-08-07T01:48:03;1.20;;;1.10;;
18411;SDS011;27097;51.738;19.472;2023-08-07T01:50:30;1.75;;;1.00;;
18411;SDS011;27097;51.738;19.472;2023-08-07T01:52:57;5.68;;;1.30;;
18411;SDS011;27097;51.738;19.472;2023-08-07T01:55:27;3.33;;;1.40;;
18411;SDS011;27097;51.738;19.472;2023-08-07T01:57:54;1.65;;;1.35;;
18411;SDS011;27097;51.738;19.472;2023-08-07T02:00:20;1.30;;;1.20;;
18411;SDS011;27097;51.738;19.472;2023-08-07T02:02:47;3.30;;;1.30;;
18411;SDS011;27097;51.738;19.472;2023-08-07T02:05:14;10.35;;;1.35;;
18411;SDS011;27097;51.738;19.472;2023-08-07T02:07:42;1.38;;;1.17;;
18411;SDS011;27097;51.738;19.472;2023-08-07T02:10:09;1.20;;;1.10;;
18411;SDS011;27097;51.738;19.472;2023-08-07T02:12:37;1.20;;;1.10;;
18411;SDS011;27097;51.738;19.472;2023-08-07T02:15:04;2.17;;;1.48;;
18411;SDS011;27097;51.738;19.472;2023-08-07T02:17:32;3.08;;;1.20;;
18411;SDS011;27097;51.738;19.472;2023-08-07T02:19:58;3.33;;;1.25;;
18411;SDS011;27097;51.738;19.472;2023-08-07T02:22:25;1.20;;;1.10;;
18411;SDS011;27097;51.738;19.472;2023-08-07T02:24:52;2.40;;;1.10;;
18411;SDS011;27097;51.738;19.472;2023-08-07T02:27:19;5.57;;;1.20;;
18411;SDS011;27097;51.738;19.472;2023-08-07T02:29:47;3.30;;;1.20;;
18411;SDS011;27097;51.738;19.472;2023-08-07T02:32:16;1.55;;;1.20;;
18411;SDS011;27097;51.738;19.472;2023-08-07T02:34:44;1.23;;;1.13;;
18411;SDS011;27097;51.738;19.472;2023-08-07T02:37:11;1.48;;;1.20;;
18411;SDS011;27097;51.738;19.472;2023-08-07T02:39:38;2.72;;;1.38;;
18411;SDS011;27097;51.738;19.472;2023-08-07T02:42:05;2.05;;;1.20;;
18411;SDS011;27097;51.738;19.472;2023-08-07T02:44:32;2.30;;;1.20;;
18411;SDS011;27097;51.738;19.472;2023-08-07T02:47:00;1.50;;;1.40;;
18411;SDS011;27097;51.738;19.472;2023-08-07T02:49:27;1.50;;;1.20;;
18411;SDS011;27097;51.738;19.472;2023-08-07T02:51:54;2.05;;;1.42;;
18411;SDS011;27097;51.738;19.472;2023-08-07T02:54:21;1.27;;;1.17;;
18411;SDS011;27097;51.738;19.472;2023-08-07T02:56:47;1.52;;;1.10;;
18411;SDS011;27097;51.738;19.472;2023-08-07T02:59:14;2.33;;;1.20;;
18411;SDS011;27097;51.738;19.472;2023-08-07T03:01:41;1.60;;;1.10;;
18411;SDS011;27097;51.738;19.472;2023-08-07T03:04:10;1.48;;;1.20;;
18411;SDS011;27097;51.738;19.472;2023-08-07T03:06:37;3.08;;;1.13;;
18411;SDS011;27097;51.738;19.472;2023-08-07T03:09:04;1.75;;;1.50;;
18411;SDS011;27097;51.738;19.472;2023-08-07T03:11:30;2.25;;;1.27;;
18411;SDS011;27097;51.738;19.472;2023-08-07T03:13:57;2.55;;;1.20;;
18411;SDS011;27097;51.738;19.472;2023-08-07T03:16:24;1.27;;;1.17;;
18411;SDS011;27097;51.738;19.472;2023-08-07T03:18:51;1.50;;;1.40;;
18411;SDS011;27097;51.738;19.472;2023-08-07T03:21:19;1.30;;;1.20;;
18411;SDS011;27097;51.738;19.472;2023-08-07T03:23:46;1.30;;;1.20;;
18411;SDS011;27097;51.738;19.472;2023-08-07T03:26:13;1.30;;;1.20;;
18411;SDS011;27097;51.738;19.472;2023-08-07T03:28:39;1.83;;;1.20;;
18411;SDS011;27097;51.738;19.472;2023-08-07T03:31:06;1.48;;;1.20;;
18411;SDS011;27097;51.738;19.472;2023-08-07T03:33:33;1.40;;;1.20;;
18411;SDS011;27097;51.738;19.472;2023-08-07T03:36:00;2.20;;;1.63;;
18411;SDS011;27097;51.738;19.472;2023-08-07T03:38:28;2.20;;;1.35;;
18411;SDS011;27097;51.738;19.472;2023-08-07T03:40:55;1.40;;;1.20;;
18411;SDS011;27097;51.738;19.472;2023-08-07T03:43:22;2.13;;;1.50;;
18411;SDS011;27097;51.738;19.472;2023-08-07T03:45:53;2.22;;;1.60;;
18411;SDS011;27097;51.738;19.472;2023-08-07T03:48:21;1.23;;;1.13;;
18411;SDS011;27097;51.738;19.472;2023-08-07T03:50:48;1.90;;;1.70;;
18411;SDS011;27097;51.738;19.472;2023-08-07T03:53:15;2.38;;;1.40;;
18411;SDS011;27097;51.738;19.472;2023-08-07T03:55:43;4.32;;;1.70;;
18411;SDS011;27097;51.738;19.472;2023-08-07T03:58:16;1.65;;;1.42;;
18411;SDS011;27097;51.738;19.472;2023-08-07T04:00:42;1.83;;;1.40;;
18411;SDS011;27097;51.738;19.472;2023-08-07T04:03:09;1.95;;;1.40;;
18411;SDS011;27097;51.738;19.472;2023-08-07T04:05:36;1.30;;;1.20;;
18411;SDS011;27097;51.738;19.472;2023-08-07T04:08:03;1.50;;;1.40;;
18411;SDS011;27097;51.738;19.472;2023-08-07T04:10:30;2.65;;;1.60;;
18411;SDS011;27097;51.738;19.472;2023-08-07T04:12:58;4.63;;;1.40;;
18411;SDS011;27097;51.738;19.472;2023-08-07T04:15:25;3.75;;;1.60;;
18411;SDS011;27097;51.738;19.472;2023-08-07T04:17:53;1.75;;;1.40;;
18411;SDS011;27097;51.738;19.472;2023-08-07T04:20:19;1.50;;;1.40;;
18411;SDS011;27097;51.738;19.472;2023-08-07T04:22:46;1.73;;;1.42;;
18411;SDS011;27097;51.738;19.472;2023-08-07T04:25:13;1.83;;;1.60;;
18411;SDS011;27097;51.738;19.472;2023-08-07T04:27:40;2.63;;;1.67;;
18411;SDS011;27097;51.738;19.472;2023-08-07T04:30:09;2.00;;;1.67;;
18411;SDS011;27097;51.738;19.472;2023-08-07T04:32:36;1.73;;;1.50;;
18411;SDS011;27097;51.738;19.472;2023-08-07T04:35:03;1.60;;;1.48;;
18411;SDS011;27097;51.738;19.472;2023-08-07T04:37:31;1.65;;;1.40;;
18411;SDS011;27097;51.738;19.472;2023-08-07T04:39:58;4.78;;;1.70;;
18411;SDS011;27097;51.738;19.472;2023-08-07T04:42:25;3.38;;;1.67;;
18411;SDS011;27097;51.738;19.472;2023-08-07T04:44:52;1.85;;;1.65;;
18411;SDS011;27097;51.738;19.472;2023-08-07T04:47:20;3.70;;;1.42;;
18411;SDS011;27097;51.738;19.472;2023-08-07T04:49:47;2.85;;;1.67;;
18411;SDS011;27097;51.738;19.472;2023-08-07T04:52:14;2.50;;;1.50;;
18411;SDS011;27097;51.738;19.472;2023-08-07T04:54:41;3.00;;;1.60;;
18411;SDS011;27097;51.738;19.472;2023-08-07T04:57:08;1.63;;;1.52;;
18411;SDS011;27097;51.738;19.472;2023-08-07T04:59:34;1.60;;;1.50;;
18411;SDS011;27097;51.738;19.472;2023-08-07T05:02:01;2.67;;;1.70;;
18411;SDS011;27097;51.738;19.472;2023-08-07T05:04:30;2.20;;;1.55;;
18411;SDS011;27097;51.738;19.472;2023-08-07T05:06:56;12.57;;;1.80;;
18411;SDS011;27097;51.738;19.472;2023-08-07T05:09:23;2.53;;;1.60;;
18411;SDS011;27097;51.738;19.472;2023-08-07T05:11:50;4.13;;;1.70;;
18411;SDS011;27097;51.738;19.472;2023-08-07T05:14:17;4.82;;;1.70;;
18411;SDS011;27097;51.738;19.472;2023-08-07T05:16:44;1.60;;;1.50;;
18411;SDS011;27097;51.738;19.472;2023-08-07T05:19:11;4.07;;;1.50;;
18411;SDS011;27097;51.738;19.472;2023-08-07T05:21:39;3.78;;;1.60;;
18411;SDS011;27097;51.738;19.472;2023-08-07T05:24:05;2.95;;;1.80;;
18411;SDS011;27097;51.738;19.472;2023-08-07T05:26:32;7.30;;;1.88;;
18411;SDS011;27097;51.738;19.472;2023-08-07T05:28:59;5.07;;;1.90;;
18411;SDS011;27097;51.738;19.472;2023-08-07T05:31:26;4.55;;;1.65;;
18411;SDS011;27097;51.738;19.472;2023-08-07T05:33:52;6.18;;;1.83;;
18411;SDS011;27097;51.738;19.472;2023-08-07T05:36:19;3.35;;;1.48;;
18411;SDS011;27097;51.738;19.472;2023-08-07T05:38:47;2.80;;;1.85;;
18411;SDS011;27097;51.738;19.472;2023-08-07T05:41:14;2.22;;;1.60;;
18411;SDS011;27097;51.738;19.472;2023-08-07T05:43:41;3.40;;;1.63;;
18411;SDS011;27097;51.738;19.472;2023-08-07T05:46:08;2.58;;;1.40;;
18411;SDS011;27097;51.738;19.472;2023-08-07T05:48:35;3.70;;;1.75;;
18411;SDS011;27097;51.738;19.472;2023-08-07T05:51:02;2.08;;;1.40;;
18411;SDS011;27097;51.738;19.472;2023-08-07T05:53:29;4.32;;;1.63;;
18411;SDS011;27097;51.738;19.472;2023-08-07T05:55:57;4.75;;;1.95;;
18411;SDS011;27097;51.738;19.472;2023-08-07T05:58:24;10.05;;;2.00;;
18411;SDS011;27097;51.738;19.472;2023-08-07T06:00:50;5.07;;;1.70;;
18411;SDS011;27097;51.738;19.472;2023-08-07T06:03:17;9.68;;;1.98;;
18411;SDS011;27097;51.738;19.472;2023-08-07T06:05:44;2.95;;;1.60;;
18411;SDS011;27097;51.738;19.472;2023-08-07T06:08:11;4.07;;;1.70;;
18411;SDS011;27097;51.738;19.472;2023-08-07T06:10:38;2.45;;;1.60;;
18411;SDS011;27097;51.738;19.472;2023-08-07T06:13:06;5.97;;;2.22;;
18411;SDS011;27097;51.738;19.472;2023-08-07T06:15:33;5.10;;;1.90;;
18411;SDS011;27097;51.738;19.472;2023-08-07T06:18:00;6.25;;;1.90;;
18411;SDS011;27097;51.738;19.472;2023-08-07T06:20:27;10.82;;;1.95;;
18411;SDS011;27097;51.738;19.472;2023-08-07T06:22:53;15.85;;;1.63;;
18411;SDS011;27097;51.738;19.472;2023-08-07T06:25:20;5.97;;;1.67;;
18411;SDS011;27097;51.738;19.472;2023-08-07T06:27:47;9.57;;;2.20;;
18411;SDS011;27097;51.738;19.472;2023-08-07T06:30:15;16.08;;;2.00;;
18411;SDS011;27097;51.738;19.472;2023-08-07T06:32:42;12.40;;;1.90;;
18411;SDS011;27097;51.738;19.472;2023-08-07T06:35:09;25.33;;;2.63;;
18411;SDS011;27097;51.738;19.472;2023-08-07T06:37:36;6.80;;;1.98;;
18411;SDS011;27097;51.738;19.472;2023-08-07T06:40:03;8.98;;;2.42;;
18411;SDS011;27097;51.738;19.472;2023-08-07T06:42:31;13.20;;;2.38;;
18411;SDS011;27097;51.738;19.472;2023-08-07T06:44:57;15.55;;;2.20;;
18411;SDS011;27097;51.738;19.472;2023-08-07T06:47:26;13.55;;;2.72;;
18411;SDS011;27097;51.738;19.472;2023-08-07T06:49:52;18.85;;;3.55;;
18411;SDS011;27097;51.738;19.472;2023-08-07T06:52:19;25.17;;;2.45;;
18411;SDS011;27097;51.738;19.472;2023-08-07T06:54:46;13.68;;;2.10;;
18411;SDS011;27097;51.738;19.472;2023-08-07T06:57:13;8.65;;;1.80;;
18411;SDS011;27097;51.738;19.472;2023-08-07T06:59:40;29.27;;;2.75;;
18411;SDS011;27097;51.738;19.472;2023-08-07T07:02:07;13.50;;;1.98;;
18411;SDS011;27097;51.738;19.472;2023-08-07T07:04:35;11.32;;;2.30;;
18411;SDS011;27097;51.738;19.472;2023-08-07T07:07:02;21.65;;;2.03;;
18411;SDS011;27097;51.738;19.472;2023-08-07T07:09:29;12.43;;;2.03;;
18411;SDS011;27097;51.738;19.472;2023-08-07T07:11:57;14.98;;;2.20;;
18411;SDS011;27097;51.738;19.472;2023-08-07T07:14:24;15.55;;;2.10;;
18411;SDS011;27097;51.738;19.472;2023-08-07T07:16:50;14.23;;;2.25;;
18411;SDS011;27097;51.738;19.472;2023-08-07T07:19:17;30.15;;;2.75;;
18411;SDS011;27097;51.738;19.472;2023-08-07T07:21:45;24.08;;;2.40;;
18411;SDS011;27097;51.738;19.472;2023-08-07T07:24:12;11.85;;;2.20;;
18411;SDS011;27097;51.738;19.472;2023-08-07T07:26:39;4.93;;;1.60;;
18411;SDS011;27097;51.738;19.472;2023-08-07T07:29:06;9.40;;;1.77;;
18411;SDS011;27097;51.738;19.472;2023-08-07T07:31:33;7.35;;;1.55;;
18411;SDS011;27097;51.738;19.472;2023-08-07T07:33:59;7.65;;;1.58;;
18411;SDS011;27097;51.738;19.472;2023-08-07T07:36:26;5.03;;;1.40;;
18411;SDS011;27097;51.738;19.472;2023-08-07T07:38:54;5.57;;;1.67;;
18411;SDS011;27097;51.738;19.472;2023-08-07T07:41:21;4.43;;;1.75;;
18411;SDS011;27097;51.738;19.472;2023-08-07T07:43:49;4.63;;;1.42;;
18411;SDS011;27097;51.738;19.472;2023-08-07T07:46:16;7.28;;;1.50;;
18411;SDS011;27097;51.738;19.472;2023-08-07T07:48:42;6.80;;;1.55;;
18411;SDS011;27097;51.738;19.472;2023-08-07T07:51:09;4.03;;;1.52;;
18411;SDS011;27097;51.738;19.472;2023-08-07T07:53:36;6.80;;;1.70;;
18411;SDS011;27097;51.738;19.472;2023-08-07T07:56:04;6.50;;;1.67;;
18411;SDS011;27097;51.738;19.472;2023-08-07T07:58:31;4.75;;;1.20;;
18411;SDS011;27097;51.738;19.472;2023-08-07T08:00:58;5.60;;;1.38;;
18411;SDS011;27097;51.738;19.472;2023-08-07T08:03:25;6.40;;;1.52;;
18411;SDS011;27097;51.738;19.472;2023-08-07T08:05:52;4.53;;;1.70;;
18411;SDS011;27097;51.738;19.472;2023-08-07T08:08:19;5.22;;;1.70;;
18411;SDS011;27097;51.738;19.472;2023-08-07T08:10:46;5.45;;;1.60;;
18411;SDS011;27097;51.738;19.472;2023-08-07T08:13:14;5.00;;;2.13;;
18411;SDS011;27097;51.738;19.472;2023-08-07T08:15:41;5.70;;;1.92;;
18411;SDS011;27097;51.738;19.472;2023-08-07T08:18:08;2.97;;;1.52;;
18411;SDS011;27097;51.738;19.472;2023-08-07T08:20:35;8.20;;;1.40;;
18411;SDS011;27097;51.738;19.472;2023-08-07T08:23:02;3.17;;;1.30;;
18411;SDS011;27097;51.738;19.472;2023-08-07T08:25:29;6.35;;;1.77;;
18411;SDS011;27097;51.738;19.472;2023-08-07T08:27:57;1.85;;;1.20;;
18411;SDS011;27097;51.738;19.472;2023-08-07T08:30:26;4.47;;;1.38;;
18411;SDS011;27097;51.738;19.472;2023-08-07T08:32:52;5.60;;;1.20;;
18411;SDS011;27097;51.738;19.472;2023-08-07T08:35:19;4.15;;;1.65;;
18411;SDS011;27097;51.738;19.472;2023-08-07T08:37:46;2.60;;;1.45;;
18411;SDS011;27097;51.738;19.472;2023-08-07T08:40:13;3.03;;;1.55;;
18411;SDS011;27097;51.738;19.472;2023-08-07T08:42:43;2.53;;;1.42;;
18411;SDS011;27097;51.738;19.472;2023-08-07T08:45:11;3.30;;;1.30;;
18411;SDS011;27097;51.738;19.472;2023-08-07T08:47:41;5.22;;;1.38;;
18411;SDS011;27097;51.738;19.472;2023-08-07T08:50:10;2.58;;;1.10;;
18411;SDS011;27097;51.738;19.472;2023-08-07T08:52:40;4.85;;;1.52;;
18411;SDS011;27097;51.738;19.472;2023-08-07T08:55:08;4.03;;;1.40;;
18411;SDS011;27097;51.738;19.472;2023-08-07T08:57:36;3.65;;;1.30;;
18411;SDS011;27097;51.738;19.472;2023-08-07T09:00:04;4.82;;;1.55;;
18411;SDS011;27097;51.738;19.472;2023-08-07T09:02:44;4.53;;;1.30;;
18411;SDS011;27097;51.738;19.472;2023-08-07T09:05:12;2.00;;;1.40;;
18411;SDS011;27097;51.738;19.472;2023-08-07T09:07:40;6.45;;;1.30;;
18411;SDS011;27097;51.738;19.472;2023-08-07T09:10:07;11.88;;;1.50;;
18411;SDS011;27097;51.738;19.472;2023-08-07T09:12:36;2.35;;;1.30;;
18411;SDS011;27097;51.738;19.472;2023-08-07T09:15:06;2.97;;;1.50;;
18411;SDS011;27097;51.738;19.472;2023-08-07T09:17:36;2.08;;;1.27;;
18411;SDS011;27097;51.738;19.472;2023-08-07T09:20:08;3.42;;;1.15;;
18411;SDS011;27097;51.738;19.472;2023-08-07T09:22:38;3.25;;;1.35;;
18411;SDS011;27097;51.738;19.472;2023-08-07T09:25:06;2.42;;;1.27;;
18411;SDS011;27097;51.738;19.472;2023-08-07T09:27:34;1.60;;;1.20;;
18411;SDS011;27097;51.738;19.472;2023-08-07T09:30:03;3.33;;;1.25;;
18411;SDS011;27097;51.738;19.472;2023-08-07T09:32:34;3.95;;;1.20;;
18411;SDS011;27097;51.738;19.472;2023-08-07T09:35:02;1.20;;;1.10;;
18411;SDS011;27097;51.738;19.472;2023-08-07T09:37:31;2.28;;;1.40;;
18411;SDS011;27097;51.738;19.472;2023-08-07T09:39:59;2.13;;;1.20;;
18411;SDS011;27097;51.738;19.472;2023-08-07T09:42:28;3.63;;;1.20;;
18411;SDS011;27097;51.738;19.472;2023-08-07T09:44:57;1.17;;;1.00;;
18411;SDS011;27097;51.738;19.472;2023-08-07T09:47:25;3.42;;;1.23;;
18411;SDS011;27097;51.738;19.472;2023-08-07T09:49:53;1.55;;;1.20;;
18411;SDS011;27097;51.738;19.472;2023-08-07T09:52:21;2.05;;;1.17;;
18411;SDS011;27097;51.738;19.472;2023-08-07T09:54:49;2.15;;;1.45;;
18411;SDS011;27097;51.738;19.472;2023-08-07T09:57:15;1.50;;;1.08;;
18411;SDS011;27097;51.738;19.472;2023-08-07T09:59:43;2.05;;;1.35;;
18411;SDS011;27097;51.738;19.472;2023-08-07T10:02:15;2.13;;;1.10;;
18411;SDS011;27097;51.738;19.472;2023-08-07T10:04:42;1.30;;;1.20;;
18411;SDS011;27097;51.738;19.472;2023-08-07T10:07:10;1.13;;;1.02;;
18411;SDS011;27097;51.738;19.472;2023-08-07T10:09:38;2.38;;;1.50;;
18411;SDS011;27097;51.738;19.472;2023-08-07T10:12:08;2.88;;;0.95;;
18411;SDS011;27097;51.738;19.472;2023-08-07T10:14:35;1.58;;;1.15;;
18411;SDS011;27097;51.738;19.472;2023-08-07T10:17:02;4.07;;;1.52;;
18411;SDS011;27097;51.738;19.472;2023-08-07T10:19:31;1.30;;;1.20;;
18411;SDS011;27097;51.738;19.472;2023-08-07T10:21:58;2.58;;;1.30;;
18411;SDS011;27097;51.738;19.472;2023-08-07T10:24:25;1.98;;;1.50;;
18411;SDS011;27097;51.738;19.472;2023-08-07T10:26:53;2.55;;;1.25;;
18411;SDS011;27097;51.738;19.472;2023-08-07T10:29:22;4.63;;;1.35;;
18411;SDS011;27097;51.738;19.472;2023-08-07T10:31:51;1.80;;;1.30;;
18411;SDS011;27097;51.738;19.472;2023-08-07T10:34:20;2.97;;;1.20;;
18411;SDS011;27097;51.738;19.472;2023-08-07T10:36:48;2.42;;;1.30;;
18411;SDS011;27097;51.738;19.472;2023-08-07T10:39:15;2.85;;;1.50;;
18411;SDS011;27097;51.738;19.472;2023-08-07T10:41:44;1.70;;;1.17;;
18411;SDS011;27097;51.738;19.472;2023-08-07T10:44:18;3.17;;;1.50;;
18411;SDS011;27097;51.738;19.472;2023-08-07T10:46:51;1.70;;;1.35;;
18411;SDS011;27097;51.738;19.472;2023-08-07T10:49:34;1.60;;;1.20;;
18411;SDS011;27097;51.738;19.472;2023-08-07T10:52:03;1.60;;;1.20;;
18411;SDS011;27097;51.738;19.472;2023-08-07T10:54:36;1.65;;;1.13;;
18411;SDS011;27097;51.738;19.472;2023-08-07T10:57:09;1.77;;;1.40;;
18411;SDS011;27097;51.738;19.472;2023-08-07T10:59:37;1.75;;;1.30;;
18411;SDS011;27097;51.738;19.472;2023-08-07T11:02:08;1.85;;;1.38;;
18411;SDS011;27097;51.738;19.472;2023-08-07T11:04:38;2.00;;;1.40;;
18411;SDS011;27097;51.738;19.472;2023-08-07T11:07:05;1.75;;;1.30;;
18411;SDS011;27097;51.738;19.472;2023-08-07T11:09:33;1.48;;;1.20;;
18411;SDS011;27097;51.738;19.472;2023-08-07T11:12:00;2.63;;;1.30;;
18411;SDS011;27097;51.738;19.472;2023-08-07T11:14:27;2.20;;;1.25;;
18411;SDS011;27097;51.738;19.472;2023-08-07T11:16:54;1.63;;;1.17;;
18411;SDS011;27097;51.738;19.472;2023-08-07T11:19:22;2.03;;;1.10;;
18411;SDS011;27097;51.738;19.472;2023-08-07T11:21:50;2.53;;;1.50;;
18411;SDS011;27097;51.738;19.472;2023-08-07T11:24:19;1.98;;;1.25;;
18411;SDS011;27097;51.738;19.472;2023-08-07T11:26:47;2.17;;;1.15;;
18411;SDS011;27097;51.738;19.472;2023-08-07T11:29:15;1.70;;;1.20;;
18411;SDS011;27097;51.738;19.472;2023-08-07T11:31:42;2.42;;;1.30;;
18411;SDS011;27097;51.738;19.472;2023-08-07T11:34:10;1.83;;;1.40;;
18411;SDS011;27097;51.738;19.472;2023-08-07T11:36:41;2.17;;;1.50;;
18411;SDS011;27097;51.738;19.472;2023-08-07T11:39:08;4.10;;;1.20;;
18411;SDS011;27097;51.738;19.472;2023-08-07T11:41:34;2.17;;;1.55;;
18411;SDS011;27097;51.738;19.472;2023-08-07T11:44:01;2.22;;;1.20;;
18411;SDS011;27097;51.738;19.472;2023-08-07T11:46:28;2.47;;;1.30;;
18411;SDS011;27097;51.738;19.472;2023-08-07T11:48:55;3.20;;;1.40;;
18411;SDS011;27097;51.738;19.472;2023-08-07T11:51:22;1.75;;;1.40;;
18411;SDS011;27097;51.738;19.472;2023-08-07T11:53:51;1.95;;;1.15;;
18411;SDS011;27097;51.738;19.472;2023-08-07T11:56:21;2.03;;;1.20;;
18411;SDS011;27097;51.738;19.472;2023-08-07T11:58:48;2.13;;;1.45;;
18411;SDS011;27097;51.738;19.472;2023-08-07T12:01:18;1.80;;;1.50;;
18411;SDS011;27097;51.738;19.472;2023-08-07T12:03:50;2.05;;;1.42;;
18411;SDS011;27097;51.738;19.472;2023-08-07T12:06:18;2.20;;;1.48;;
18411;SDS011;27097;51.738;19.472;2023-08-07T12:08:45;1.90;;;1.50;;
18411;SDS011;27097;51.738;19.472;2023-08-07T12:11:16;1.83;;;1.42;;
18411;SDS011;27097;51.738;19.472;2023-08-07T12:13:43;2.40;;;1.42;;
18411;SDS011;27097;51.738;19.472;2023-08-07T12:16:11;2.63;;;1.50;;
18411;SDS011;27097;51.738;19.472;2023-08-07T12:18:42;1.67;;;1.58;;
18411;SDS011;27097;51.738;19.472;2023-08-07T12:21:10;2.17;;;1.42;;
18411;SDS011;27097;51.738;19.472;2023-08-07T12:23:37;2.40;;;1.63;;
18411;SDS011;27097;51.738;19.472;2023-08-07T12:26:04;2.20;;;1.38;;
18411;SDS011;27097;51.738;19.472;2023-08-07T12:28:33;2.22;;;1.60;;
18411;SDS011;27097;51.738;19.472;2023-08-07T12:31:01;2.53;;;1.67;;
18411;SDS011;27097;51.738;19.472;2023-08-07T12:33:28;3.15;;;1.60;;
18411;SDS011;27097;51.738;19.472;2023-08-07T12:35:55;1.83;;;1.58;;
18411;SDS011;27097;51.738;19.472;2023-08-07T12:38:22;3.35;;;1.88;;
18411;SDS011;27097;51.738;19.472;2023-08-07T12:40:49;3.22;;;1.88;;
18411;SDS011;27097;51.738;19.472;2023-08-07T12:43:16;2.80;;;1.80;;
18411;SDS011;27097;51.738;19.472;2023-08-07T12:45:44;1.85;;;1.63;;
18411;SDS011;27097;51.738;19.472;2023-08-07T12:48:11;3.45;;;1.73;;
18411;SDS011;27097;51.738;19.472;2023-08-07T12:50:38;2.60;;;1.52;;
18411;SDS011;27097;51.738;19.472;2023-08-07T12:53:06;3.20;;;2.28;;
18411;SDS011;27097;51.738;19.472;2023-08-07T12:55:32;2.53;;;1.80;;
18411;SDS011;27097;51.738;19.472;2023-08-07T12:57:59;2.22;;;1.60;;
18411;SDS011;27097;51.738;19.472;2023-08-07T13:00:26;2.30;;;1.60;;
18411;SDS011;27097;51.738;19.472;2023-08-07T13:02:54;3.42;;;1.90;;
18411;SDS011;27097;51.738;19.472;2023-08-07T13:05:21;3.75;;;2.20;;
18411;SDS011;27097;51.738;19.472;2023-08-07T13:07:48;2.63;;;1.70;;
18411;SDS011;27097;51.738;19.472;2023-08-07T13:10:18;4.13;;;1.90;;
18411;SDS011;27097;51.738;19.472;2023-08-07T13:12:47;4.00;;;1.90;;
18411;SDS011;27097;51.738;19.472;2023-08-07T13:15:15;1.90;;;1.70;;
18411;SDS011;27097;51.738;19.472;2023-08-07T13:17:43;2.40;;;1.65;;
18411;SDS011;27097;51.738;19.472;2023-08-07T13:20:12;1.60;;;1.50;;
18411;SDS011;27097;51.738;19.472;2023-08-07T13:22:39;2.15;;;1.50;;
18411;SDS011;27097;51.738;19.472;2023-08-07T13:25:07;3.28;;;1.55;;
18411;SDS011;27097;51.738;19.472;2023-08-07T13:27:36;2.35;;;1.45;;
18411;SDS011;27097;51.738;19.472;2023-08-07T13:30:04;2.17;;;1.58;;
18411;SDS011;27097;51.738;19.472;2023-08-07T13:32:32;2.13;;;1.50;;
18411;SDS011;27097;51.738;19.472;2023-08-07T13:34:59;2.75;;;1.80;;
18411;SDS011;27097;51.738;19.472;2023-08-07T13:37:27;2.63;;;1.63;;
18411;SDS011;27097;51.738;19.472;2023-08-07T13:39:54;3.70;;;1.80;;
18411;SDS011;27097;51.738;19.472;2023-08-07T13:42:23;2.05;;;1.85;;
18411;SDS011;27097;51.738;19.472;2023-08-07T13:44:50;1.88;;;1.50;;
18411;SDS011;27097;51.738;19.472;2023-08-07T13:47:17;1.73;;;1.52;;
18411;SDS011;27097;51.738;19.472;2023-08-07T13:49:45;2.65;;;1.70;;
18411;SDS011;27097;51.738;19.472;2023-08-07T13:52:12;1.83;;;1.55;;
18411;SDS011;27097;51.738;19.472;2023-08-07T13:54:40;2.40;;;1.60;;
18411;SDS011;27097;51.738;19.472;2023-08-07T13:57:07;1.70;;;1.60;;
18411;SDS011;27097;51.738;19.472;2023-08-07T13:59:34;1.90;;;1.40;;
18411;SDS011;27097;51.738;19.472;2023-08-07T14:02:00;2.00;;;1.60;;
18411;SDS011;27097;51.738;19.472;2023-08-07T14:04:27;1.95;;;1.48;;
18411;SDS011;27097;51.738;19.472;2023-08-07T14:06:54;1.52;;;1.42;;
18411;SDS011;27097;51.738;19.472;2023-08-07T14:09:21;2.70;;;1.67;;
18411;SDS011;27097;51.738;19.472;2023-08-07T14:11:49;1.65;;;1.42;;
18411;SDS011;27097;51.738;19.472;2023-08-07T14:14:16;2.70;;;1.92;;
18411;SDS011;27097;51.738;19.472;2023-08-07T14:16:43;2.20;;;1.50;;
18411;SDS011;27097;51.738;19.472;2023-08-07T14:19:10;3.17;;;1.50;;
18411;SDS011;27097;51.738;19.472;2023-08-07T14:21:36;1.90;;;1.42;;
18411;SDS011;27097;51.738;19.472;2023-08-07T14:24:03;3.90;;;1.65;;
18411;SDS011;27097;51.738;19.472;2023-08-07T14:26:30;3.15;;;1.65;;
18411;SDS011;27097;51.738;19.472;2023-08-07T14:28:59;2.05;;;1.58;;
18411;SDS011;27097;51.738;19.472;2023-08-07T14:31:25;3.00;;;1.77;;
18411;SDS011;27097;51.738;19.472;2023-08-07T14:33:52;1.77;;;1.58;;
18411;SDS011;27097;51.738;19.472;2023-08-07T14:36:19;2.75;;;1.60;;